Sutherland Springs, Texas
Current Conditions -  °F | °C
As of 11:58 PM on Tuesday 27 Jan 2015 (Local Time) from KRND Reporting Station
Clear Clear  
Wind Chill: 46°   Ceiling: Unl
Heat Index: 49°   Visibility: 10mi
Dew Point: 40°   Wind: 6mph
Humidity: 73%   Direction: 320°NW
Pressure: 30.15"   Gusts: NA
Location:  29.27°N, 98.06°W
Report Text: KRND 280558Z AUTO 32005KT 10SM CLR 09/05 A3015 RMK AO2 SLPNO T00930046 10223 20086 402700060 53002
Loading
Personal Weather Stations






























Interactive Weather Map New forecast layout! Learn more

10-Day Weather Forecast

Advertisements
Track Severe Weather on mobile